sensor_id;sensor_type;location;lat;lon;timestamp;pressure;altitude;pressure_sealevel;temperature;humidity
80116;BME280;69423;47.608;19.366;2024-01-15T00:00:22;97689.94;;;-3.27;96.30
80116;BME280;69423;47.608;19.366;2024-01-15T00:00:53;97696.25;;;-3.30;96.08
80116;BME280;69423;47.608;19.366;2024-01-15T00:01:24;97694.22;;;-3.26;96.10
80116;BME280;69423;47.608;19.366;2024-01-15T00:01:55;97684.91;;;-3.29;95.88
80116;BME280;69423;47.608;19.366;2024-01-15T00:02:26;97689.22;;;-3.39;95.74
80116;BME280;69423;47.608;19.366;2024-01-15T00:02:57;97690.28;;;-3.41;95.85
80116;BME280;69423;47.608;19.366;2024-01-15T00:03:28;97687.53;;;-3.40;95.38
80116;BME280;69423;47.608;19.366;2024-01-15T00:04:00;97678.66;;;-3.37;95.40
80116;BME280;69423;47.608;19.366;2024-01-15T00:04:31;97681.31;;;-3.28;95.35
80116;BME280;69423;47.608;19.366;2024-01-15T00:05:06;97674.78;;;-3.22;95.82
80116;BME280;69423;47.608;19.366;2024-01-15T00:05:37;97679.69;;;-3.29;96.07
80116;BME280;69423;47.608;19.366;2024-01-15T00:06:09;97673.88;;;-3.32;95.88
80116;BME280;69423;47.608;19.366;2024-01-15T00:06:41;97670.84;;;-3.37;96.03
80116;BME280;69423;47.608;19.366;2024-01-15T00:07:12;97668.59;;;-3.42;95.83
80116;BME280;69423;47.608;19.366;2024-01-15T00:07:43;97667.78;;;-3.42;95.83
80116;BME280;69423;47.608;19.366;2024-01-15T00:08:14;97669.44;;;-3.41;95.84
80116;BME280;69423;47.608;19.366;2024-01-15T00:08:45;97655.97;;;-3.47;96.18
80116;BME280;69423;47.608;19.366;2024-01-15T00:09:16;97660.47;;;-3.49;96.41
80116;BME280;69423;47.608;19.366;2024-01-15T00:09:47;97655.97;;;-3.47;96.60
80116;BME280;69423;47.608;19.366;2024-01-15T00:10:18;97662.56;;;-3.42;96.40
80116;BME280;69423;47.608;19.366;2024-01-15T00:10:49;97668.75;;;-3.43;96.18
80116;BME280;69423;47.608;19.366;2024-01-15T00:11:20;97666.16;;;-3.43;95.94
80116;BME280;69423;47.608;19.366;2024-01-15T00:11:51;97659.38;;;-3.46;95.80
80116;BME280;69423;47.608;19.366;2024-01-15T00:12:22;97652.66;;;-3.49;95.61
80116;BME280;69423;47.608;19.366;2024-01-15T00:12:53;97665.25;;;-3.54;95.65
80116;BME280;69423;47.608;19.366;2024-01-15T00:13:24;97663.97;;;-3.59;95.67
80116;BME280;69423;47.608;19.366;2024-01-15T00:13:55;97650.81;;;-3.58;95.73
80116;BME280;69423;47.608;19.366;2024-01-15T00:14:26;97666.06;;;-3.53;95.85
80116;BME280;69423;47.608;19.366;2024-01-15T00:14:57;97659.19;;;-3.54;95.56
80116;BME280;69423;47.608;19.366;2024-01-15T00:15:28;97655.66;;;-3.53;95.67
80116;BME280;69423;47.608;19.366;2024-01-15T00:16:00;97648.66;;;-3.53;95.75
80116;BME280;69423;47.608;19.366;2024-01-15T00:16:32;97652.22;;;-3.54;95.79
80116;BME280;69423;47.608;19.366;2024-01-15T00:17:03;97649.34;;;-3.51;95.62
80116;BME280;69423;47.608;19.366;2024-01-15T00:17:37;97647.44;;;-3.49;95.73
80116;BME280;69423;47.608;19.366;2024-01-15T00:18:08;97647.56;;;-3.50;95.64
80116;BME280;69423;47.608;19.366;2024-01-15T00:18:39;97648.53;;;-3.51;95.41
80116;BME280;69423;47.608;19.366;2024-01-15T00:19:10;97648.66;;;-3.53;95.43
80116;BME280;69423;47.608;19.366;2024-01-15T00:19:41;97653.97;;;-3.54;95.74
80116;BME280;69423;47.608;19.366;2024-01-15T00:20:12;97646.31;;;-3.56;95.77
80116;BME280;69423;47.608;19.366;2024-01-15T00:20:43;97645.72;;;-3.59;95.90
80116;BME280;69423;47.608;19.366;2024-01-15T00:21:14;97653.94;;;-3.64;96.09
80116;BME280;69423;47.608;19.366;2024-01-15T00:21:46;97653.81;;;-3.62;96.01
80116;BME280;69423;47.608;19.366;2024-01-15T00:22:17;97652.41;;;-3.67;95.89
80116;BME280;69423;47.608;19.366;2024-01-15T00:22:48;97651.94;;;-3.72;96.07
80116;BME280;69423;47.608;19.366;2024-01-15T00:23:19;97650.16;;;-3.71;96.14
80116;BME280;69423;47.608;19.366;2024-01-15T00:23:50;97648.25;;;-3.69;96.49
80116;BME280;69423;47.608;19.366;2024-01-15T00:24:21;97659.97;;;-3.63;96.21
80116;BME280;69423;47.608;19.366;2024-01-15T00:24:53;97644.22;;;-3.62;96.51
80116;BME280;69423;47.608;19.366;2024-01-15T00:25:27;97641.59;;;-3.62;96.54
80116;BME280;69423;47.608;19.366;2024-01-15T00:25:58;97645.63;;;-3.58;96.59
80116;BME280;69423;47.608;19.366;2024-01-15T00:26:31;97638.31;;;-3.64;96.50
80116;BME280;69423;47.608;19.366;2024-01-15T00:27:02;97638.81;;;-3.70;96.30
80116;BME280;69423;47.608;19.366;2024-01-15T00:27:33;97630.72;;;-3.67;96.64
80116;BME280;69423;47.608;19.366;2024-01-15T00:28:05;97645.72;;;-3.59;96.61
80116;BME280;69423;47.608;19.366;2024-01-15T00:28:37;97639.69;;;-3.60;96.47
80116;BME280;69423;47.608;19.366;2024-01-15T00:29:08;97637.78;;;-3.58;96.48
80116;BME280;69423;47.608;19.366;2024-01-15T00:29:39;97635.03;;;-3.56;96.35
80116;BME280;69423;47.608;19.366;2024-01-15T00:30:11;97637.41;;;-3.53;96.39
80116;BME280;69423;47.608;19.366;2024-01-15T00:30:42;97633.72;;;-3.51;96.38
80116;BME280;69423;47.608;19.366;2024-01-15T00:31:16;97629.41;;;-3.61;96.42
80116;BME280;69423;47.608;19.366;2024-01-15T00:31:47;97627.88;;;-3.64;96.68
80116;BME280;69423;47.608;19.366;2024-01-15T00:32:18;97627.38;;;-3.58;96.75
80116;BME280;69423;47.608;19.366;2024-01-15T00:32:49;97628.78;;;-3.54;96.62
80116;BME280;69423;47.608;19.366;2024-01-15T00:33:20;97629.00;;;-3.57;96.44
80116;BME280;69423;47.608;19.366;2024-01-15T00:33:51;97623.81;;;-3.57;96.50
80116;BME280;69423;47.608;19.366;2024-01-15T00:34:22;97629.84;;;-3.56;96.44
80116;BME280;69423;47.608;19.366;2024-01-15T00:34:53;97632.59;;;-3.58;96.45
80116;BME280;69423;47.608;19.366;2024-01-15T00:35:25;97634.72;;;-3.63;96.58
80116;BME280;69423;47.608;19.366;2024-01-15T00:35:56;97636.50;;;-3.63;96.97
80116;BME280;69423;47.608;19.366;2024-01-15T00:36:27;97631.88;;;-3.60;97.15
80116;BME280;69423;47.608;19.366;2024-01-15T00:36:58;97624.50;;;-3.55;97.19
80116;BME280;69423;47.608;19.366;2024-01-15T00:37:29;97623.56;;;-3.54;97.50
80116;BME280;69423;47.608;19.366;2024-01-15T00:38:00;97625.47;;;-3.56;97.85
80116;BME280;69423;47.608;19.366;2024-01-15T00:38:31;97627.09;;;-3.55;98.12
80116;BME280;69423;47.608;19.366;2024-01-15T00:39:02;97628.78;;;-3.54;98.36
80116;BME280;69423;47.608;19.366;2024-01-15T00:39:35;97620.00;;;-3.53;98.31
80116;BME280;69423;47.608;19.366;2024-01-15T00:40:07;97614.41;;;-3.48;98.71
80116;BME280;69423;47.608;19.366;2024-01-15T00:40:38;97610.03;;;-3.48;98.48
80116;BME280;69423;47.608;19.366;2024-01-15T00:41:09;97606.34;;;-3.45;98.39
80116;BME280;69423;47.608;19.366;2024-01-15T00:41:40;97617.34;;;-3.41;98.49
80116;BME280;69423;47.608;19.366;2024-01-15T00:42:11;97615.44;;;-3.39;98.45
80116;BME280;69423;47.608;19.366;2024-01-15T00:42:43;97603.78;;;-3.35;98.29
80116;BME280;69423;47.608;19.366;2024-01-15T00:43:14;97599.53;;;-3.36;98.28
80116;BME280;69423;47.608;19.366;2024-01-15T00:43:46;97610.91;;;-3.37;98.52
80116;BME280;69423;47.608;19.366;2024-01-15T00:44:17;97611.63;;;-3.35;98.45
80116;BME280;69423;47.608;19.366;2024-01-15T00:44:48;97616.81;;;-3.35;98.24
80116;BME280;69423;47.608;19.366;2024-01-15T00:45:19;97619.44;;;-3.35;98.07
80116;BME280;69423;47.608;19.366;2024-01-15T00:45:50;97610.41;;;-3.31;98.30
80116;BME280;69423;47.608;19.366;2024-01-15T00:46:21;97597.09;;;-3.28;98.06
80116;BME280;69423;47.608;19.366;2024-01-15T00:46:52;97600.53;;;-3.28;98.24
80116;BME280;69423;47.608;19.366;2024-01-15T00:47:23;97603.72;;;-3.24;98.19
80116;BME280;69423;47.608;19.366;2024-01-15T00:47:54;97593.16;;;-3.22;98.19
80116;BME280;69423;47.608;19.366;2024-01-15T00:48:27;97598.22;;;-3.21;98.00
80116;BME280;69423;47.608;19.366;2024-01-15T00:48:58;97608.22;;;-3.26;97.92
80116;BME280;69423;47.608;19.366;2024-01-15T00:49:29;97595.19;;;-3.26;98.16
80116;BME280;69423;47.608;19.366;2024-01-15T00:50:00;97609.63;;;-3.22;97.88
80116;BME280;69423;47.608;19.366;2024-01-15T00:50:32;97602.03;;;-3.25;97.78
80116;BME280;69423;47.608;19.366;2024-01-15T00:51:04;97613.31;;;-3.24;97.59
80116;BME280;69423;47.608;19.366;2024-01-15T00:51:35;97605.09;;;-3.20;97.59
80116;BME280;69423;47.608;19.366;2024-01-15T00:52:06;97604.13;;;-3.19;97.74
80116;BME280;69423;47.608;19.366;2024-01-15T00:52:37;97600.59;;;-3.18;97.90
80116;BME280;69423;47.608;19.366;2024-01-15T00:53:08;97607.59;;;-3.18;98.18
80116;BME280;69423;47.608;19.366;2024-01-15T00:53:39;97600.69;;;-3.19;98.29
80116;BME280;69423;47.608;19.366;2024-01-15T00:54:10;97606.72;;;-3.19;98.17
80116;BME280;69423;47.608;19.366;2024-01-15T00:54:41;97598.66;;;-3.16;98.34
80116;BME280;69423;47.608;19.366;2024-01-15T00:55:12;97599.38;;;-3.14;98.46
80116;BME280;69423;47.608;19.366;2024-01-15T00:55:43;97601.69;;;-3.11;98.29
80116;BME280;69423;47.608;19.366;2024-01-15T00:56:14;97608.69;;;-3.11;98.29
80116;BME280;69423;47.608;19.366;2024-01-15T00:56:46;97602.66;;;-3.12;98.67
80116;BME280;69423;47.608;19.366;2024-01-15T00:57:16;97608.81;;;-3.13;98.52
80116;BME280;69423;47.608;19.366;2024-01-15T00:57:49;97605.97;;;-3.10;99.01
80116;BME280;69423;47.608;19.366;2024-01-15T00:58:20;97599.66;;;-3.07;98.55
80116;BME280;69423;47.608;19.366;2024-01-15T00:58:51;97602.16;;;-3.06;98.58
80116;BME280;69423;47.608;19.366;2024-01-15T00:59:22;97602.56;;;-3.00;98.64
80116;BME280;69423;47.608;19.366;2024-01-15T00:59:53;97596.28;;;-2.98;98.50
80116;BME280;69423;47.608;19.366;2024-01-15T01:00:24;97606.72;;;-2.98;98.39
80116;BME280;69423;47.608;19.366;2024-01-15T01:00:55;97598.75;;;-2.96;98.37
80116;BME280;69423;47.608;19.366;2024-01-15T01:01:26;97600.13;;;-2.92;98.37
80116;BME280;69423;47.608;19.366;2024-01-15T01:01:57;97594.22;;;-2.94;98.58
80116;BME280;69423;47.608;19.366;2024-01-15T01:02:28;97597.53;;;-2.92;98.41
80116;BME280;69423;47.608;19.366;2024-01-15T01:03:00;97604.53;;;-2.93;98.44
80116;BME280;69423;47.608;19.366;2024-01-15T01:03:31;97596.69;;;-2.93;98.51
80116;BME280;69423;47.608;19.366;2024-01-15T01:04:02;97593.97;;;-2.91;98.59
80116;BME280;69423;47.608;19.366;2024-01-15T01:04:33;97600.81;;;-2.90;98.58
80116;BME280;69423;47.608;19.366;2024-01-15T01:05:04;97596.44;;;-2.90;98.65
80116;BME280;69423;47.608;19.366;2024-01-15T01:05:35;97596.44;;;-2.90;98.74
80116;BME280;69423;47.608;19.366;2024-01-15T01:06:06;97595.59;;;-2.90;98.59
80116;BME280;69423;47.608;19.366;2024-01-15T01:06:37;97595.34;;;-2.87;98.71
80116;BME280;69423;47.608;19.366;2024-01-15T01:07:08;97592.47;;;-2.84;98.54
80116;BME280;69423;47.608;19.366;2024-01-15T01:07:39;97592.22;;;-2.81;98.45
80116;BME280;69423;47.608;19.366;2024-01-15T01:08:10;97588.91;;;-2.83;98.62
80116;BME280;69423;47.608;19.366;2024-01-15T01:08:41;97590.56;;;-2.82;98.52
80116;BME280;69423;47.608;19.366;2024-01-15T01:09:12;97578.34;;;-2.81;98.88
80116;BME280;69423;47.608;19.366;2024-01-15T01:09:43;97587.28;;;-2.74;99.33
80116;BME280;69423;47.608;19.366;2024-01-15T01:10:14;97589.50;;;-2.70;98.96
80116;BME280;69423;47.608;19.366;2024-01-15T01:10:45;97594.72;;;-2.70;99.29
80116;BME280;69423;47.608;19.366;2024-01-15T01:11:16;97598.44;;;-2.72;99.06
80116;BME280;69423;47.608;19.366;2024-01-15T01:11:47;97600.34;;;-2.74;99.01
80116;BME280;69423;47.608;19.366;2024-01-15T01:12:18;97596.34;;;-2.78;98.99
80116;BME280;69423;47.608;19.366;2024-01-15T01:12:49;97594.84;;;-2.81;98.86
80116;BME280;69423;47.608;19.366;2024-01-15T01:13:20;97588.66;;;-2.80;99.08
80116;BME280;69423;47.608;19.366;2024-01-15T01:13:51;97592.75;;;-2.77;99.35
80116;BME280;69423;47.608;19.366;2024-01-15T01:14:23;97597.84;;;-2.76;98.96
80116;BME280;69423;47.608;19.366;2024-01-15T01:14:54;97593.44;;;-2.75;99.02
80116;BME280;69423;47.608;19.366;2024-01-15T01:15:25;97595.00;;;-2.73;98.79
80116;BME280;69423;47.608;19.366;2024-01-15T01:15:56;97585.09;;;-2.69;98.63
80116;BME280;69423;47.608;19.366;2024-01-15T01:16:27;97586.63;;;-2.67;98.91
80116;BME280;69423;47.608;19.366;2024-01-15T01:16:58;97590.88;;;-2.66;98.79
80116;BME280;69423;47.608;19.366;2024-01-15T01:17:29;97590.75;;;-2.64;98.73
80116;BME280;69423;47.608;19.366;2024-01-15T01:18:01;97592.69;;;-2.66;98.77
80116;BME280;69423;47.608;19.366;2024-01-15T01:18:32;97588.03;;;-2.62;98.74
80116;BME280;69423;47.608;19.366;2024-01-15T01:19:03;97591.56;;;-2.63;99.20
80116;BME280;69423;47.608;19.366;2024-01-15T01:19:34;97591.56;;;-2.63;98.86
80116;BME280;69423;47.608;19.366;2024-01-15T01:20:06;97593.91;;;-2.60;98.88
80116;BME280;69423;47.608;19.366;2024-01-15T01:20:39;97593.66;;;-2.57;98.59
80116;BME280;69423;47.608;19.366;2024-01-15T01:21:10;97583.91;;;-2.55;98.90
80116;BME280;69423;47.608;19.366;2024-01-15T01:21:41;97573.19;;;-2.52;98.34
80116;BME280;69423;47.608;19.366;2024-01-15T01:22:12;97580.19;;;-2.53;98.42
80116;BME280;69423;47.608;19.366;2024-01-15T01:22:43;97575.53;;;-2.49;98.54
80116;BME280;69423;47.608;19.366;2024-01-15T01:23:14;97567.72;;;-2.49;98.51
80116;BME280;69423;47.608;19.366;2024-01-15T01:23:45;97573.22;;;-2.42;98.58
80116;BME280;69423;47.608;19.366;2024-01-15T01:24:16;97565.94;;;-2.39;98.66
80116;BME280;69423;47.608;19.366;2024-01-15T01:24:47;97566.63;;;-2.37;98.75
80116;BME280;69423;47.608;19.366;2024-01-15T01:25:18;97566.88;;;-2.40;98.88
80116;BME280;69423;47.608;19.366;2024-01-15T01:25:49;97562.78;;;-2.33;98.70
80116;BME280;69423;47.608;19.366;2024-01-15T01:26:20;97559.06;;;-2.30;98.82
80116;BME280;69423;47.608;19.366;2024-01-15T01:26:51;97562.25;;;-2.27;98.91
80116;BME280;69423;47.608;19.366;2024-01-15T01:27:22;97559.34;;;-2.24;98.66
80116;BME280;69423;47.608;19.366;2024-01-15T01:27:53;97566.38;;;-2.24;98.56
80116;BME280;69423;47.608;19.366;2024-01-15T01:28:24;97567.19;;;-2.24;98.62
80116;BME280;69423;47.608;19.366;2024-01-15T01:28:55;97559.47;;;-2.25;98.31
80116;BME280;69423;47.608;19.366;2024-01-15T01:29:26;97563.06;;;-2.16;98.12
80116;BME280;69423;47.608;19.366;2024-01-15T01:29:57;97550.72;;;-2.14;98.61
80116;BME280;69423;47.608;19.366;2024-01-15T01:30:28;97556.47;;;-2.11;97.98
80116;BME280;69423;47.608;19.366;2024-01-15T01:30:59;97550.84;;;-2.16;98.07
80116;BME280;69423;47.608;19.366;2024-01-15T01:31:30;97547.66;;;-2.19;98.08
80116;BME280;69423;47.608;19.366;2024-01-15T01:32:01;97557.97;;;-2.18;98.33
80116;BME280;69423;47.608;19.366;2024-01-15T01:32:32;97554.94;;;-2.23;98.47
80116;BME280;69423;47.608;19.366;2024-01-15T01:33:03;97558.41;;;-2.22;98.40
80116;BME280;69423;47.608;19.366;2024-01-15T01:33:34;97551.25;;;-2.20;98.49
80116;BME280;69423;47.608;19.366;2024-01-15T01:34:05;97546.84;;;-2.20;98.31
80116;BME280;69423;47.608;19.366;2024-01-15T01:34:41;97549.47;;;-2.20;98.20
80116;BME280;69423;47.608;19.366;2024-01-15T01:35:13;97557.28;;;-2.20;98.31
80116;BME280;69423;47.608;19.366;2024-01-15T01:35:44;97558.13;;;-2.19;98.08
80116;BME280;69423;47.608;19.366;2024-01-15T01:36:15;97551.94;;;-2.18;97.89
80116;BME280;69423;47.608;19.366;2024-01-15T01:36:47;97549.34;;;-2.18;97.95
80116;BME280;69423;47.608;19.366;2024-01-15T01:37:18;97555.63;;;-2.21;97.97
80116;BME280;69423;47.608;19.366;2024-01-15T01:37:49;97555.78;;;-2.22;98.03
80116;BME280;69423;47.608;19.366;2024-01-15T01:38:20;97552.88;;;-2.19;97.96
80116;BME280;69423;47.608;19.366;2024-01-15T01:38:51;97559.63;;;-2.17;97.75
80116;BME280;69423;47.608;19.366;2024-01-15T01:39:22;97559.50;;;-2.15;97.77
80116;BME280;69423;47.608;19.366;2024-01-15T01:39:53;97557.84;;;-2.16;97.80
80116;BME280;69423;47.608;19.366;2024-01-15T01:40:24;97554.56;;;-2.18;97.60
80116;BME280;69423;47.608;19.366;2024-01-15T01:40:55;97561.69;;;-2.20;97.91
80116;BME280;69423;47.608;19.366;2024-01-15T01:41:26;97560.03;;;-2.21;97.86
80116;BME280;69423;47.608;19.366;2024-01-15T01:41:57;97550.69;;;-2.24;98.03
80116;BME280;69423;47.608;19.366;2024-01-15T01:42:28;97549.03;;;-2.25;98.31
80116;BME280;69423;47.608;19.366;2024-01-15T01:42:59;97557.97;;;-2.28;98.77
80116;BME280;69423;47.608;19.366;2024-01-15T01:43:30;97553.72;;;-2.29;98.45
80116;BME280;69423;47.608;19.366;2024-01-15T01:44:01;97553.72;;;-2.29;98.56
80116;BME280;69423;47.608;19.366;2024-01-15T01:44:33;97550.81;;;-2.26;98.32
80116;BME280;69423;47.608;19.366;2024-01-15T01:45:04;97545.47;;;-2.24;98.21
80116;BME280;69423;47.608;19.366;2024-01-15T01:45:35;97544.66;;;-2.25;98.02
80116;BME280;69423;47.608;19.366;2024-01-15T01:46:06;97542.72;;;-2.22;97.97
80116;BME280;69423;47.608;19.366;2024-01-15T01:46:38;97538.88;;;-2.18;97.96
80116;BME280;69423;47.608;19.366;2024-01-15T01:47:11;97530.22;;;-2.19;97.82
80116;BME280;69423;47.608;19.366;2024-01-15T01:47:43;97537.22;;;-2.19;97.53
80116;BME280;69423;47.608;19.366;2024-01-15T01:48:14;97531.06;;;-2.18;97.73
80116;BME280;69423;47.608;19.366;2024-01-15T01:48:45;97534.34;;;-2.16;97.71
80116;BME280;69423;47.608;19.366;2024-01-15T01:49:16;97534.47;;;-2.18;97.39
80116;BME280;69423;47.608;19.366;2024-01-15T01:49:48;97530.38;;;-2.20;97.50
80116;BME280;69423;47.608;19.366;2024-01-15T01:50:19;97534.91;;;-2.22;97.79
80116;BME280;69423;47.608;19.366;2024-01-15T01:50:52;97530.38;;;-2.20;97.49
80116;BME280;69423;47.608;19.366;2024-01-15T01:51:24;97533.13;;;-2.22;97.53
80116;BME280;69423;47.608;19.366;2024-01-15T01:51:58;97536.41;;;-2.20;97.29
80116;BME280;69423;47.608;19.366;2024-01-15T01:52:31;97530.09;;;-2.17;97.27
80116;BME280;69423;47.608;19.366;2024-01-15T01:53:02;97530.22;;;-2.19;97.16
80116;BME280;69423;47.608;19.366;2024-01-15T01:53:37;97525.41;;;-2.24;97.67
80116;BME280;69423;47.608;19.366;2024-01-15T01:54:10;97520.47;;;-2.27;97.64
80116;BME280;69423;47.608;19.366;2024-01-15T01:54:43;97523.47;;;-2.21;97.56
80116;BME280;69423;47.608;19.366;2024-01-15T01:55:14;97527.59;;;-2.19;97.65
80116;BME280;69423;47.608;19.366;2024-01-15T01:55:46;97523.22;;;-2.18;97.68
80116;BME280;69423;47.608;19.366;2024-01-15T01:56:18;97521.56;;;-2.19;97.65
80116;BME280;69423;47.608;19.366;2024-01-15T01:56:50;97520.88;;;-2.21;97.67
80116;BME280;69423;47.608;19.366;2024-01-15T01:57:22;97522.09;;;-2.26;97.56
80116;BME280;69423;47.608;19.366;2024-01-15T01:57:54;97520.47;;;-2.27;97.29
80116;BME280;69423;47.608;19.366;2024-01-15T01:58:26;97521.00;;;-2.23;97.54
80116;BME280;69423;47.608;19.366;2024-01-15T01:58:58;97518.56;;;-2.25;97.57
80116;BME280;69423;47.608;19.366;2024-01-15T01:59:30;97514.81;;;-2.32;97.77
80116;BME280;69423;47.608;19.366;2024-01-15T02:00:02;97518.56;;;-2.25;97.77
80116;BME280;69423;47.608;19.366;2024-01-15T02:00:35;97515.09;;;-2.25;97.79
80116;BME280;69423;47.608;19.366;2024-01-15T02:01:07;97515.94;;;-2.25;97.81
80116;BME280;69423;47.608;19.366;2024-01-15T02:01:38;97505.63;;;-2.26;97.80
80116;BME280;69423;47.608;19.366;2024-01-15T02:02:10;97511.66;;;-2.26;98.15
80116;BME280;69423;47.608;19.366;2024-01-15T02:02:42;97508.13;;;-2.25;98.21
80116;BME280;69423;47.608;19.366;2024-01-15T02:03:13;97507.13;;;-2.24;97.98
80116;BME280;69423;47.608;19.366;2024-01-15T02:03:45;97512.34;;;-2.24;97.89
80116;BME280;69423;47.608;19.366;2024-01-15T02:04:16;97507.25;;;-2.25;97.84
80116;BME280;69423;47.608;19.366;2024-01-15T02:04:49;97511.66;;;-2.26;97.32
80116;BME280;69423;47.608;19.366;2024-01-15T02:05:21;97509.75;;;-2.24;97.17
80116;BME280;69423;47.608;19.366;2024-01-15T02:05:53;97515.78;;;-2.23;97.13
80116;BME280;69423;47.608;19.366;2024-01-15T02:06:24;97508.13;;;-2.25;96.91
80116;BME280;69423;47.608;19.366;2024-01-15T02:06:55;97495.59;;;-2.31;97.21
80116;BME280;69423;47.608;19.366;2024-01-15T02:07:26;97498.47;;;-2.24;97.43
80116;BME280;69423;47.608;19.366;2024-01-15T02:07:58;97500.00;;;-2.21;97.78
80116;BME280;69423;47.608;19.366;2024-01-15T02:08:29;97501.78;;;-2.22;97.79
80116;BME280;69423;47.608;19.366;2024-01-15T02:09:00;97501.91;;;-2.24;97.52
80116;BME280;69423;47.608;19.366;2024-01-15T02:09:32;97505.34;;;-2.23;97.95
80116;BME280;69423;47.608;19.366;2024-01-15T02:10:03;97496.69;;;-2.24;97.63
80116;BME280;69423;47.608;19.366;2024-01-15T02:10:34;97496.97;;;-2.27;97.55
80116;BME280;69423;47.608;19.366;2024-01-15T02:11:05;97497.94;;;-2.28;97.57
80116;BME280;69423;47.608;19.366;2024-01-15T02:11:37;97503.84;;;-2.26;97.59
80116;BME280;69423;47.608;19.366;2024-01-15T02:12:08;97500.97;;;-2.22;97.68
80116;BME280;69423;47.608;19.366;2024-01-15T02:12:39;97503.16;;;-2.18;97.20
80116;BME280;69423;47.608;19.366;2024-01-15T02:13:11;97497.50;;;-2.13;97.43
80116;BME280;69423;47.608;19.366;2024-01-15T02:13:42;97486.50;;;-2.17;97.26
80116;BME280;69423;47.608;19.366;2024-01-15T02:14:13;97501.34;;;-2.17;97.51
80116;BME280;69423;47.608;19.366;2024-01-15T02:14:44;97497.25;;;-2.20;97.72
80116;BME280;69423;47.608;19.366;2024-01-15T02:15:15;97496.44;;;-2.20;97.20
80116;BME280;69423;47.608;19.366;2024-01-15T02:15:46;97500.00;;;-2.21;97.35
80116;BME280;69423;47.608;19.366;2024-01-15T02:16:17;97494.09;;;-2.24;97.25
80116;BME280;69423;47.608;19.366;2024-01-15T02:16:48;97498.47;;;-2.24;97.11
80116;BME280;69423;47.608;19.366;2024-01-15T02:17:19;97497.66;;;-2.25;97.03
80116;BME280;69423;47.608;19.366;2024-01-15T02:18:00;97500.41;;;-2.26;97.12
80116;BME280;69423;47.608;19.366;2024-01-15T02:18:45;97492.44;;;-2.25;97.14
80116;BME280;69423;47.608;19.366;2024-01-15T02:19:16;97496.97;;;-2.27;97.06
80116;BME280;69423;47.608;19.366;2024-01-15T02:19:48;97496.28;;;-2.29;97.46
80116;BME280;69423;47.608;19.366;2024-01-15T02:20:20;97498.91;;;-2.29;97.61
80116;BME280;69423;47.608;19.366;2024-01-15T02:20:51;97498.63;;;-2.26;97.54
80116;BME280;69423;47.608;19.366;2024-01-15T02:21:22;97505.22;;;-2.21;97.42
80116;BME280;69423;47.608;19.366;2024-01-15T02:21:53;97504.53;;;-2.24;97.31
80116;BME280;69423;47.608;19.366;2024-01-15T02:22:24;97495.44;;;-2.29;97.40
80116;BME280;69423;47.608;19.366;2024-01-15T02:23:43;97492.84;;;-2.29;97.22
80116;BME280;69423;47.608;19.366;2024-01-15T02:24:14;97495.31;;;-2.28;97.35
80116;BME280;69423;47.608;19.366;2024-01-15T02:24:45;97488.88;;;-2.33;97.26
80116;BME280;69423;47.608;19.366;2024-01-15T02:25:16;97490.66;;;-2.34;97.52
80116;BME280;69423;47.608;19.366;2024-01-15T02:25:47;97491.63;;;-2.35;97.71
80116;BME280;69423;47.608;19.366;2024-01-15T02:26:18;97489.69;;;-2.33;97.67
80116;BME280;69423;47.608;19.366;2024-01-15T02:26:50;97489.97;;;-2.36;97.57
80116;BME280;69423;47.608;19.366;2024-01-15T02:27:21;97479.53;;;-2.36;97.69
80116;BME280;69423;47.608;19.366;2024-01-15T02:27:52;97490.81;;;-2.35;97.88
80116;BME280;69423;47.608;19.366;2024-01-15T02:28:23;97484.06;;;-2.38;97.65
80116;BME280;69423;47.608;19.366;2024-01-15T02:28:54;97481.44;;;-2.38;97.86
80116;BME280;69423;47.608;19.366;2024-01-15T02:29:26;97484.06;;;-2.38;97.84
80116;BME280;69423;47.608;19.366;2024-01-15T02:29:57;97479.53;;;-2.36;97.94
80116;BME280;69423;47.608;19.366;2024-01-15T02:30:28;97481.59;;;-2.30;97.99
80116;BME280;69423;47.608;19.366;2024-01-15T02:31:00;97484.88;;;-2.28;97.87
80116;BME280;69423;47.608;19.366;2024-01-15T02:31:31;97484.47;;;-2.33;97.96
80116;BME280;69423;47.608;19.366;2024-01-15T02:32:06;97484.06;;;-2.38;97.99
80116;BME280;69423;47.608;19.366;2024-01-15T02:32:37;97479.69;;;-2.37;97.86
80116;BME280;69423;47.608;19.366;2024-01-15T02:33:09;97485.03;;;-2.39;97.90
80116;BME280;69423;47.608;19.366;2024-01-15T02:33:40;97481.31;;;-2.36;97.71
80116;BME280;69423;47.608;19.366;2024-01-15T02:34:12;97484.22;;;-2.39;97.67
80116;BME280;69423;47.608;19.366;2024-01-15T02:34:43;97495.47;;;-2.39;97.87
80116;BME280;69423;47.608;19.366;2024-01-15T02:35:14;97484.47;;;-2.42;97.87
80116;BME280;69423;47.608;19.366;2024-01-15T02:35:46;97479.38;;;-2.44;98.16
80116;BME280;69423;47.608;19.366;2024-01-15T02:36:17;97487.50;;;-2.47;97.98
80116;BME280;69423;47.608;19.366;2024-01-15T02:36:48;97487.75;;;-2.50;98.33
80116;BME280;69423;47.608;19.366;2024-01-15T02:37:19;97492.97;;;-2.50;98.21
80116;BME280;69423;47.608;19.366;2024-01-15T02:37:51;97479.81;;;-2.49;98.55
80116;BME280;69423;47.608;19.366;2024-01-15T02:38:22;97487.38;;;-2.46;98.59
80116;BME280;69423;47.608;19.366;2024-01-15T02:38:53;97494.34;;;-2.46;98.30
80116;BME280;69423;47.608;19.366;2024-01-15T02:39:24;97482.16;;;-2.46;98.76
80116;BME280;69423;47.608;19.366;2024-01-15T02:39:55;97489.97;;;-2.46;98.29
80116;BME280;69423;47.608;19.366;2024-01-15T02:40:26;97489.13;;;-2.46;98.70
80116;BME280;69423;47.608;19.366;2024-01-15T02:40:58;97496.72;;;-2.43;98.61
80116;BME280;69423;47.608;19.366;2024-01-15T02:41:29;97494.78;;;-2.41;98.80
80116;BME280;69423;47.608;19.366;2024-01-15T02:42:00;97495.59;;;-2.40;98.62
80116;BME280;69423;47.608;19.366;2024-01-15T02:42:31;97489.69;;;-2.42;98.78
80116;BME280;69423;47.608;19.366;2024-01-15T02:43:02;97485.03;;;-2.39;98.62
80116;BME280;69423;47.608;19.366;2024-01-15T02:43:33;97487.34;;;-2.36;98.78
80116;BME280;69423;47.608;19.366;2024-01-15T02:44:04;97481.19;;;-2.35;98.42
80116;BME280;69423;47.608;19.366;2024-01-15T02:44:35;97486.53;;;-2.36;98.34
80116;BME280;69423;47.608;19.366;2024-01-15T02:45:06;97485.59;;;-2.35;97.94